ESSB Airport Information

Runway Information
Runway 12 Length 5472 ft width 148 ft
Elevation 46 ft Threshold 0 ft Heading 125
Runway 30 Length 5472 ft Width 148 ft
Elevation 42 ft Threshold 0 ft Heading 305
Airport Frequencies
Type AFIS Name AFIS Frequency 119.4 MHZ
Type APP Name APP Frequency 120.15 MHZ
Type ATIS Name ATIS Frequency 122.45 MHZ
Type GND Name GND Frequency 121.6 MHZ
Type TWR Name TWR Frequency 118.1 MHZ
Airport Navaids
Type NDB Name Nacka Frequency 335 KHZ
Type NDB Name Bromma Frequency 394 KHZ
Type NDB Name Bromma Frequency 322 KHZ
Airport Weather Information & NOTAM
ADDS - METARS form results

(1719 UTC 20 January 2022)
Data provider http://aviationweather.gov/metar/data/
 
METAR text: ESSB 201650Z 30013KT CAVOK M02/M07 Q1000
Conditions at: ESSB (STOCKHOLM/BROMMA, SE) observed 1650 UTC 20 January 2022
Temperature: -2.0°C (28°F)
Dewpoint: -7.0°C (19°F) [RH = 69%]
Pressure (altimeter): 29.53 inches Hg (1000.0 mb)
Winds: from the WNW (300 degrees) at 15 MPH (13 knots; 6.7 m/s)
Visibility: 6 or more miles (10+ km)
Ceiling: ceiling and visibility are OK
Clouds: unknown
Weather: no significant weather observed at this time

METAR text: ESSB 201620Z 31015KT CAVOK M03/M08 Q1000
Conditions at: ESSB (STOCKHOLM/BROMMA, SE) observed 1620 UTC 20 January 2022
Temperature: -3.0°C (27°F)
Dewpoint: -8.0°C (18°F) [RH = 68%]
Pressure (altimeter): 29.53 inches Hg (1000.0 mb)
Winds: from the NW (310 degrees) at 17 MPH (15 knots; 7.7 m/s)
Visibility: 6 or more miles (10+ km)
Ceiling: ceiling and visibility are OK
Clouds: unknown
Weather: no significant weather observed at this time

Forecast for: ESSB (STOCKHOLM/BROMMA, SE)
Text: TAF ESSB 201430Z 2015/2022 31018G30KT CAVOK
Forecast period: 1500 to 2200 UTC 20 January 2022
Forecast type: FROM: standard forecast or significant change
Winds: from the NW (310 degrees) at 21 MPH (18 knots; 9.3 m/s)
gusting to 34 MPH (30 knots; 15.4 m/s)
Visibility: 6 or more miles (10+ km)
Ceiling: unknown
Clouds: missing
Weather: NSW  (no significant weather)